createdAt,value
2023-04-18T00:02:54.274Z,1.05
2023-04-18T00:07:56.620Z,0.93
2023-04-18T00:12:58.385Z,1.02
2023-04-18T00:18:00.917Z,0.90
2023-04-18T00:23:02.432Z,0.95
2023-04-18T00:28:03.987Z,0.95
2023-04-18T00:33:05.580Z,0.77
2023-04-18T00:38:07.124Z,0.88
2023-04-18T00:43:08.780Z,1.02
2023-04-18T00:48:10.534Z,0.77
2023-04-18T00:53:12.026Z,1.08
2023-04-18T00:58:14.110Z,0.90
2023-04-18T01:03:18.413Z,0.75
2023-04-18T01:08:21.564Z,1.10
2023-04-18T01:13:23.056Z,0.70
2023-04-18T01:18:24.629Z,0.88
2023-04-18T01:23:26.328Z,1.20
2023-04-18T01:28:27.941Z,0.98
2023-04-18T01:33:29.568Z,1.00
2023-04-18T01:38:31.145Z,0.95
2023-04-18T01:43:32.666Z,0.88
2023-04-18T01:48:34.268Z,0.88
2023-04-18T01:53:35.731Z,1.02
2023-04-18T01:58:37.409Z,0.95
2023-04-18T02:03:39.201Z,1.05
2023-04-18T02:08:41.024Z,0.95
2023-04-18T02:13:42.578Z,0.93
2023-04-18T02:18:44.396Z,1.15
2023-04-18T02:23:45.888Z,1.23
2023-04-18T02:28:47.343Z,0.98
2023-04-18T02:33:48.921Z,0.93
2023-04-18T02:38:50.477Z,0.95
2023-04-18T02:43:52.023Z,1.08
2023-04-18T02:48:53.752Z,0.93
2023-04-18T02:53:56.289Z,0.90
2023-04-18T02:58:57.759Z,1.02
2023-04-18T03:03:59.328Z,1.10
2023-04-18T03:09:00.849Z,1.10
2023-04-18T03:14:02.442Z,0.68
2023-04-18T03:19:03.951Z,0.82
2023-04-18T03:24:05.751Z,0.90
2023-04-18T03:29:07.300Z,0.98
2023-04-18T03:34:08.758Z,0.80
2023-04-18T03:39:10.270Z,1.17
2023-04-18T03:44:11.962Z,0.88
2023-04-18T03:49:13.587Z,0.75
2023-04-18T03:54:15.900Z,1.10
2023-04-18T03:59:17.597Z,0.98
2023-04-18T04:04:19.358Z,1.02
2023-04-18T04:09:20.915Z,0.85
2023-04-18T04:14:22.921Z,0.90
2023-04-18T04:19:24.425Z,0.75
2023-04-18T04:24:25.936Z,1.00
2023-04-18T04:29:29.044Z,1.02
2023-04-18T04:34:31.081Z,0.90
2023-04-18T04:39:32.686Z,0.85
2023-04-18T04:44:35.618Z,1.05
2023-04-18T04:49:37.426Z,1.15
2023-04-18T04:54:38.907Z,1.08
2023-04-18T04:59:40.418Z,0.70
2023-04-18T05:04:41.994Z,1.00
2023-04-18T05:09:43.484Z,0.82
2023-04-18T05:14:45.022Z,1.05
2023-04-18T05:19:46.547Z,1.00
2023-04-18T05:24:48.019Z,1.33
2023-04-18T05:29:50.381Z,0.85
2023-04-18T05:34:51.876Z,1.02
2023-04-18T05:39:53.416Z,0.85
2023-04-18T05:44:55.363Z,0.88
2023-04-18T05:49:56.934Z,0.93
2023-04-18T05:54:58.452Z,1.38
2023-04-18T06:00:00.000Z,1.42
2023-04-18T06:05:02.007Z,0.85
2023-04-18T06:10:03.778Z,1.05
2023-04-18T06:15:05.920Z,0.90
2023-04-18T06:20:07.646Z,0.88
2023-04-18T06:25:10.295Z,1.10
2023-04-18T06:30:12.057Z,0.75
2023-04-18T06:35:13.550Z,1.08
2023-04-18T06:40:15.096Z,0.93
2023-04-18T06:45:16.718Z,1.08
2023-04-18T06:50:18.419Z,0.98
2023-04-18T06:55:19.943Z,1.27
2023-04-18T07:00:21.546Z,0.82
2023-04-18T07:05:23.056Z,1.00
2023-04-18T07:10:24.619Z,1.20
2023-04-18T07:15:26.121Z,0.93
2023-04-18T07:20:27.641Z,0.98
2023-04-18T07:25:29.099Z,0.82
2023-04-18T07:30:30.771Z,1.27
2023-04-18T07:35:32.237Z,1.00
2023-04-18T07:40:33.751Z,1.15
2023-04-18T07:45:36.419Z,1.25
2023-04-18T07:50:38.146Z,1.23
2023-04-18T07:55:39.671Z,0.90
2023-04-18T08:00:42.681Z,1.50
2023-04-18T08:05:44.244Z,0.47
2023-04-18T08:10:45.719Z,1.20
2023-04-18T08:15:47.383Z,1.10
2023-04-18T08:20:49.065Z,1.20
2023-04-18T08:25:51.000Z,1.02
2023-04-18T08:30:52.535Z,1.05
2023-04-18T08:35:54.376Z,0.82
2023-04-18T08:40:55.950Z,1.40
2023-04-18T08:46:00.861Z,0.75
2023-04-18T08:51:03.107Z,0.65
2023-04-18T08:56:05.520Z,0.80
2023-04-18T09:01:08.942Z,0.85
2023-04-18T09:06:16.297Z,0.75
2023-04-18T09:11:21.381Z,0.70
2023-04-18T09:16:23.676Z,0.65
2023-04-18T09:21:25.200Z,0.75
2023-04-18T09:26:34.032Z,0.50
2023-04-18T09:31:35.871Z,0.35
2023-04-18T09:36:37.641Z,0.55
2023-04-18T09:41:39.212Z,0.63
2023-04-18T09:46:40.888Z,0.43
2023-04-18T09:51:43.771Z,0.57
2023-04-18T09:56:46.559Z,1.17
2023-04-18T10:01:48.828Z,1.58
2023-04-18T10:06:50.378Z,0.60
2023-04-18T10:11:52.295Z,0.60
2023-04-18T10:16:53.854Z,0.65
2023-04-18T10:21:56.210Z,0.82
2023-04-18T10:26:57.962Z,0.75
2023-04-18T10:32:05.301Z,0.57
2023-04-18T10:37:07.033Z,0.40
2023-04-18T10:42:08.563Z,0.40
2023-04-18T10:47:10.393Z,0.40
2023-04-18T10:52:13.411Z,0.40
2023-04-18T10:57:15.471Z,0.50
2023-04-18T11:02:30.502Z,0.70
2023-04-18T11:07:33.137Z,0.50
2023-04-18T11:12:36.380Z,0.30
2023-04-18T11:17:40.242Z,0.40
2023-04-18T11:22:51.492Z,0.45
2023-04-18T11:27:53.124Z,0.30
2023-04-18T11:32:56.074Z,0.30
2023-04-18T11:37:58.148Z,0.57
2023-04-18T11:43:06.740Z,0.70
2023-04-18T11:48:08.317Z,0.45
2023-04-18T11:53:10.023Z,0.55
2023-04-18T11:58:11.560Z,0.30
2023-04-18T12:03:16.886Z,0.52
2023-04-18T12:08:19.273Z,0.50
2023-04-18T12:13:31.212Z,0.50
2023-04-18T12:18:32.722Z,0.30
2023-04-18T12:23:35.518Z,0.30
2023-04-18T12:28:37.090Z,0.43
2023-04-18T12:33:38.644Z,0.28
2023-04-18T12:38:40.159Z,0.52
2023-04-18T12:43:41.627Z,0.40
2023-04-18T12:48:43.341Z,0.20
2023-04-18T12:53:44.810Z,0.32
2023-04-18T12:58:46.522Z,0.43
2023-04-18T13:03:56.490Z,0.28
2023-04-18T13:09:05.876Z,0.47
2023-04-18T13:14:07.351Z,0.50
2023-04-18T13:19:08.821Z,0.20
2023-04-18T13:24:10.281Z,0.28
2023-04-18T13:29:11.804Z,0.30
2023-04-18T13:34:13.505Z,0.20
2023-04-18T13:39:15.365Z,0.30
2023-04-18T13:44:16.971Z,0.20
2023-04-18T13:49:18.560Z,0.30
2023-04-18T13:54:20.218Z,0.20
2023-04-18T13:59:21.691Z,0.25
2023-04-18T14:04:24.161Z,0.20
2023-04-18T14:09:26.792Z,0.20
2023-04-18T14:14:28.295Z,0.10
2023-04-18T14:19:29.756Z,0.20
2023-04-18T14:24:31.216Z,0.10
2023-04-18T14:29:32.714Z,0.77
2023-04-18T14:34:35.847Z,0.30
2023-04-18T14:39:38.221Z,0.77
2023-04-18T14:44:39.785Z,0.30
2023-04-18T14:49:41.381Z,0.30
2023-04-18T14:54:44.005Z,0.03
2023-04-18T14:59:45.486Z,0.20
2023-04-18T15:04:47.072Z,0.30
2023-04-18T15:09:48.596Z,0.30
2023-04-18T15:14:50.093Z,0.20
2023-04-18T15:19:51.771Z,0.22
2023-04-18T15:24:53.297Z,0.20
2023-04-18T15:29:54.867Z,0.13
2023-04-18T15:34:56.436Z,0.20
2023-04-18T15:39:57.897Z,0.45
2023-04-18T15:44:59.684Z,0.30
2023-04-18T15:50:02.829Z,0.22
2023-04-18T15:55:05.248Z,0.20
2023-04-18T16:00:12.024Z,0.17
2023-04-18T16:05:14.008Z,0.10
2023-04-18T16:10:15.905Z,0.32
2023-04-18T16:15:17.405Z,0.28
2023-04-18T16:20:19.167Z,0.20
2023-04-18T16:25:20.669Z,0.50
2023-04-18T16:30:22.249Z,0.10
2023-04-18T16:35:23.823Z,0.30
2023-04-18T16:40:30.378Z,0.20
2023-04-18T16:45:32.766Z,0.17
2023-04-18T16:50:34.345Z,0.17
2023-04-18T16:55:36.189Z,0.17
2023-04-18T17:00:38.481Z,0.13
2023-04-18T17:05:40.476Z,0.17
2023-04-18T17:10:41.952Z,0.20
2023-04-18T17:15:43.410Z,0.15
2023-04-18T17:20:44.964Z,0.15
2023-04-18T17:25:46.587Z,0.20
2023-04-18T17:30:48.136Z,0.15
2023-04-18T17:35:50.402Z,0.22
2023-04-18T17:41:01.281Z,0.22
2023-04-18T17:46:03.864Z,0.20
2023-04-18T17:51:05.626Z,0.10
2023-04-18T17:56:07.165Z,0.20
2023-04-18T18:01:18.875Z,0.15
2023-04-18T18:06:20.678Z,0.13
2023-04-18T18:11:23.177Z,0.13
2023-04-18T18:16:24.903Z,0.20
2023-04-18T18:21:26.512Z,0.20
2023-04-18T18:26:28.051Z,0.20
2023-04-18T18:31:29.611Z,0.35
2023-04-18T18:36:31.455Z,0.25
2023-04-18T18:41:32.947Z,0.40
2023-04-18T18:46:35.495Z,0.30
2023-04-18T18:51:37.255Z,0.35
2023-04-18T18:56:40.051Z,0.30
2023-04-18T19:01:41.633Z,0.20
2023-04-18T19:06:43.197Z,0.20
2023-04-18T19:11:44.767Z,0.30
2023-04-18T19:16:46.261Z,0.30
2023-04-18T19:21:47.780Z,0.30
2023-04-18T19:26:49.305Z,0.20
2023-04-18T19:31:51.540Z,0.40
2023-04-18T19:36:53.097Z,0.30
2023-04-18T19:41:54.572Z,0.22
2023-04-18T19:46:56.332Z,0.20
2023-04-18T19:51:58.079Z,0.50
2023-04-18T19:56:59.557Z,0.20
2023-04-18T20:02:04.194Z,0.22
2023-04-18T20:07:07.579Z,0.32
2023-04-18T20:12:09.093Z,0.30
2023-04-18T20:17:10.872Z,0.40
2023-04-18T20:22:14.415Z,0.30
2023-04-18T20:27:16.093Z,0.20
2023-04-18T20:32:17.644Z,0.30
2023-04-18T20:37:20.077Z,0.20
2023-04-18T20:42:21.632Z,0.60
2023-04-18T20:47:23.463Z,0.25
2023-04-18T20:52:25.010Z,0.30
2023-04-18T20:57:26.609Z,0.38
2023-04-18T21:02:28.201Z,0.30
2023-04-18T21:07:31.212Z,0.20
2023-04-18T21:12:32.850Z,0.40
2023-04-18T21:17:34.357Z,0.40
2023-04-18T21:22:35.894Z,0.20
2023-04-18T21:27:37.453Z,0.20
2023-04-18T21:32:39.000Z,0.20
2023-04-18T21:37:40.550Z,0.25
2023-04-18T21:42:42.148Z,0.22
2023-04-18T21:47:44.307Z,0.30
2023-04-18T21:52:45.905Z,0.30
2023-04-18T21:57:47.379Z,0.30
2023-04-18T22:02:49.019Z,0.28
2023-04-18T22:07:58.116Z,0.30
2023-04-18T22:13:00.260Z,0.30
2023-04-18T22:18:01.783Z,0.30
2023-04-18T22:23:04.385Z,0.30
2023-04-18T22:28:06.234Z,0.20
2023-04-18T22:33:07.706Z,0.32
2023-04-18T22:38:10.288Z,0.30
2023-04-18T22:43:11.768Z,0.30
2023-04-18T22:48:13.389Z,0.30
2023-04-18T22:53:15.407Z,0.45
2023-04-18T22:58:17.012Z,0.40
2023-04-18T23:03:18.638Z,0.32
2023-04-18T23:08:22.570Z,0.47
2023-04-18T23:13:24.206Z,0.30
2023-04-18T23:18:25.687Z,0.30
2023-04-18T23:23:27.192Z,0.20
2023-04-18T23:28:28.691Z,0.35
2023-04-18T23:33:30.226Z,0.30
2023-04-18T23:38:31.756Z,0.25
2023-04-18T23:43:33.545Z,0.30
2023-04-18T23:48:35.234Z,0.35
2023-04-18T23:53:36.948Z,0.80
2023-04-18T23:58:38.382Z,0.20
